Time;durP1;ratioP1;P1;durP2;ratioP2;P2;SDS_P1;SDS_P2;PMS_P1;PMS_P2;Temp;Humidity;BMP_temperature;BMP_pressure;BME280_temperature;BME280_humidity;BME280_pressure;Samples;Min_cycle;Max_cycle;Signal;HPM_P1;HPM_P2
2022/08/10 00:00:48;;;;;;;8.15;6.50;;;;;;;22.41;66.82;94878.88;6300233;22;20172;-78
2022/08/10 00:03:16;;;;;;;9.77;6.82;;;;;;;22.44;66.29;94867.72;6300132;22;20172;-78
2022/08/10 00:05:43;;;;;;;9.10;6.80;;;;;;;22.34;66.49;94871.28;6300694;22;20160;-78
2022/08/10 00:08:09;;;;;;;9.93;7.07;;;;;;;22.30;66.82;94872.94;6300175;22;20480;-78
2022/08/10 00:10:37;;;;;;;8.18;6.97;;;;;;;22.20;67.15;94877.56;6300845;22;20157;-78
2022/08/10 00:13:04;;;;;;;12.68;7.18;;;;;;;22.18;67.70;94861.19;6300769;22;20217;-79
2022/08/10 00:15:31;;;;;;;13.52;6.80;;;;;;;22.25;67.93;94867.69;6300656;22;20270;-79
2022/08/10 00:17:58;;;;;;;9.23;7.18;;;;;;;22.25;67.92;94869.56;6300839;22;20630;-79
2022/08/10 00:20:27;;;;;;;10.68;6.90;;;;;;;22.30;67.80;94874.78;6300700;22;20217;-79
2022/08/10 00:22:53;;;;;;;11.15;6.88;;;;;;;22.23;67.26;94867.19;6301236;22;20817;-80
2022/08/10 00:25:20;;;;;;;10.00;6.30;;;;;;;21.95;68.61;94865.44;6302410;22;20168;-80
2022/08/10 00:27:47;;;;;;;8.52;6.57;;;;;;;21.96;68.54;94867.78;6301431;22;20175;-80
2022/08/10 00:30:14;;;;;;;11.85;6.78;;;;;;;21.75;68.38;94873.59;6301013;22;20620;-80
2022/08/10 00:32:41;;;;;;;8.60;6.22;;;;;;;21.65;69.77;94876.31;6301166;22;20276;-79
2022/08/10 00:35:09;;;;;;;10.98;6.72;;;;;;;21.77;69.95;94871.44;6301366;22;20639;-80
2022/08/10 00:37:37;;;;;;;10.27;6.70;;;;;;;21.86;69.96;94865.25;6300558;22;20169;-80
2022/08/10 00:40:05;;;;;;;10.38;6.90;;;;;;;21.86;68.93;94862.59;6302146;22;20164;-80
2022/08/10 00:42:32;;;;;;;11.40;6.88;;;;;;;21.91;68.70;94862.56;6300223;22;20643;-80
2022/08/10 00:44:59;;;;;;;8.32;7.10;;;;;;;21.86;68.99;94862.59;6300409;22;20172;-79
2022/08/10 00:47:26;;;;;;;11.85;8.30;;;;;;;21.98;69.91;94876.25;6300380;22;20187;-79
2022/08/10 00:49:53;;;;;;;9.18;6.45;;;;;;;21.94;68.57;94877.88;6301373;22;20164;-79
2022/08/10 00:52:20;;;;;;;9.40;7.00;;;;;;;21.72;69.51;94874.94;6300986;22;21179;-78
2022/08/10 00:54:49;;;;;;;9.80;6.32;;;;;;;21.77;69.79;94880.16;6300823;22;20620;-79
2022/08/10 00:57:17;;;;;;;9.10;7.05;;;;;;;21.81;69.52;94875.91;6300326;22;20208;-77
2022/08/10 00:59:44;;;;;;;8.32;6.63;;;;;;;21.80;69.85;94871.66;6300567;22;20167;-76
2022/08/10 01:02:11;;;;;;;7.90;7.10;;;;;;;21.72;69.39;94885.53;6298887;22;20160;-77
2022/08/10 01:04:37;;;;;;;11.25;6.97;;;;;;;21.62;70.04;94882.19;6300524;22;20179;-77
2022/08/10 01:07:28;;;;;;;10.35;6.88;;;;;;;21.72;71.17;94879.44;6300985;22;20167;-79
2022/08/10 01:10:06;;;;;;;11.25;6.75;;;;;;;21.72;70.22;94876.78;6301282;22;20200;-78
2022/08/10 01:12:41;;;;;;;13.35;7.20;;;;;;;21.67;70.74;94884.78;6300282;22;20536;-79
2022/08/10 01:15:17;;;;;;;10.98;6.95;;;;;;;21.63;71.46;94881.13;6301730;22;20152;-78
2022/08/10 01:17:52;;;;;;;11.48;7.63;;;;;;;21.65;71.28;94873.69;6301472;22;20156;-78
2022/08/10 01:20:27;;;;;;;8.80;7.20;;;;;;;21.68;71.71;94878.41;6301293;22;20152;-80
2022/08/10 01:23:28;;;;;;;16.95;7.80;;;;;;;21.59;71.99;94886.19;6303257;22;20170;-79
2022/08/10 01:26:21;;;;;;;11.60;7.75;;;;;;;21.54;72.61;94877.50;6301797;22;20164;-79
2022/08/10 01:29:08;;;;;;;12.05;7.65;;;;;;;21.61;72.73;94877.97;6300546;22;20630;-78
2022/08/10 01:31:41;;;;;;;10.68;7.60;;;;;;;21.61;72.64;94876.13;6300245;22;20167;-77
2022/08/10 01:34:14;;;;;;;8.82;7.28;;;;;;;21.60;72.59;94877.19;6301416;22;20148;-78
2022/08/10 01:36:46;;;;;;;9.15;7.00;;;;;;;21.48;72.19;94874.13;6301377;22;20148;-79
2022/08/10 01:39:23;;;;;;;8.55;6.95;;;;;;;21.15;73.52;94869.69;6301012;22;20149;-78
2022/08/10 01:41:55;;;;;;;11.77;7.35;;;;;;;20.98;74.50;94866.66;6301371;22;20160;-77
2022/08/10 01:44:28;;;;;;;12.73;7.80;;;;;;;20.98;75.24;94872.69;6301190;22;20163;-78
2022/08/10 01:48:27;;;;;;;11.60;7.30;;;;;;;21.12;74.95;94876.34;6301259;22;20157;-78
2022/08/10 01:49:49;;;;;;;12.18;7.43;;;;;;;21.16;74.28;94872.06;6300655;22;20184;-78
2022/08/10 01:52:20;;;;;;;11.80;7.63;;;;;;;21.14;74.57;94874.19;6301447;22;20241;-79
2022/08/10 01:54:49;;;;;;;7.88;7.05;;;;;;;21.05;74.74;94875.03;6300328;22;20160;-78
2022/08/10 01:57:17;;;;;;;12.05;7.35;;;;;;;21.02;75.12;94868.44;6300288;22;20206;-78
2022/08/10 01:59:45;;;;;;;9.05;7.40;;;;;;;21.05;75.35;94854.69;6300119;22;20172;-78
2022/08/10 02:02:17;;;;;;;8.35;7.00;;;;;;;21.05;75.56;94862.59;6299162;22;20658;-79
2022/08/10 02:04:48;;;;;;;10.38;7.10;;;;;;;21.09;75.38;94852.31;6301336;22;20187;-79
2022/08/10 02:07:18;;;;;;;11.27;7.53;;;;;;;21.00;76.13;94838.88;6300940;22;20271;-78
2022/08/10 02:09:49;;;;;;;10.27;7.35;;;;;;;21.08;76.17;94859.44;6302023;22;20192;-78
2022/08/10 02:12:20;;;;;;;9.93;7.78;;;;;;;21.02;76.55;94860.53;6302366;22;20185;-77
2022/08/10 02:14:53;;;;;;;11.38;7.43;;;;;;;20.95;76.19;94857.41;6302006;22;20229;-77
2022/08/10 02:17:25;;;;;;;12.32;7.70;;;;;;;20.74;76.98;94848.06;6301658;22;20486;-78
2022/08/10 02:19:56;;;;;;;12.25;7.72;;;;;;;20.63;78.06;94855.28;6303086;22;20160;-78
2022/08/10 02:22:25;;;;;;;15.38;7.28;;;;;;;20.68;78.33;94857.09;6302595;22;20160;-79
2022/08/10 02:24:53;;;;;;;10.45;7.03;;;;;;;20.78;78.06;94864.94;6303814;22;20175;-79
2022/08/10 02:27:22;;;;;;;9.43;8.02;;;;;;;20.83;78.03;94868.34;6302767;22;20168;-80
2022/08/10 02:29:52;;;;;;;10.70;7.97;;;;;;;20.83;77.91;94860.41;6303210;22;20172;-80
2022/08/10 02:32:23;;;;;;;10.48;7.22;;;;;;;20.83;77.93;94863.06;6302272;22;20188;-80
2022/08/10 02:34:50;;;;;;;10.38;7.45;;;;;;;20.84;77.76;94866.47;6302981;22;20161;-79
2022/08/10 02:37:21;;;;;;;8.90;7.82;;;;;;;20.77;78.36;94866.00;6301651;22;20176;-77
2022/08/10 02:39:48;;;;;;;11.13;7.93;;;;;;;20.77;78.75;94872.09;6302948;22;20156;-77
2022/08/10 02:42:22;;;;;;;10.50;8.15;;;;;;;20.71;79.26;94859.19;6302546;22;20165;-79
2022/08/10 02:44:55;;;;;;;11.25;8.75;;;;;;;20.66;79.10;94861.88;6303190;22;20180;-79
2022/08/10 02:47:28;;;;;;;17.42;9.10;;;;;;;20.72;79.45;94872.09;6302264;22;20164;-78
2022/08/10 02:50:02;;;;;;;17.25;9.70;;;;;;;20.66;80.24;94870.59;6301276;22;20168;-76
2022/08/10 02:52:35;;;;;;;16.23;9.57;;;;;;;20.59;80.67;94861.38;6301879;22;20176;-77
2022/08/10 02:55:09;;;;;;;16.33;11.25;;;;;;;20.68;80.66;94873.75;6302261;22;20153;-78
2022/08/10 02:57:39;;;;;;;17.58;12.00;;;;;;;20.72;80.36;94874.75;6302161;22;20152;-77
2022/08/10 03:00:08;;;;;;;22.10;12.40;;;;;;;20.68;80.84;94867.66;6302606;22;20172;-79
2022/08/10 03:02:41;;;;;;;18.50;12.60;;;;;;;20.64;80.90;94875.34;6302319;22;20168;-79
2022/08/10 03:05:11;;;;;;;26.02;14.90;;;;;;;20.63;81.31;94875.63;6302678;22;20183;-79
2022/08/10 03:07:43;;;;;;;22.63;12.80;;;;;;;20.59;81.74;94875.38;6304189;22;20163;-79
2022/08/10 03:10:15;;;;;;;21.48;13.90;;;;;;;20.61;82.06;94875.09;6302023;22;20207;-77
2022/08/10 03:12:43;;;;;;;29.20;15.07;;;;;;;20.63;82.08;94880.91;6301339;22;20180;-77
2022/08/10 03:15:13;;;;;;;24.90;13.77;;;;;;;20.67;81.71;94874.78;6300621;22;20172;-78
2022/08/10 03:17:43;;;;;;;24.58;13.52;;;;;;;20.60;82.72;94878.81;6301263;22;20168;-77
2022/08/10 03:20:11;;;;;;;24.38;12.85;;;;;;;20.56;83.11;94877.78;6301304;22;20792;-78
2022/08/10 03:22:39;;;;;;;20.60;12.02;;;;;;;20.52;82.79;94882.06;6302159;22;20161;-78
2022/08/10 03:25:08;;;;;;;17.02;10.82;;;;;;;20.70;82.02;94876.88;6301369;22;20199;-78
2022/08/10 03:27:36;;;;;;;21.42;10.50;;;;;;;20.76;80.99;94885.56;6302278;22;20164;-73
2022/08/10 03:30:04;;;;;;;20.33;10.80;;;;;;;20.82;81.03;94885.25;6301960;22;20171;-73
2022/08/10 03:32:33;;;;;;;19.15;10.23;;;;;;;20.82;81.12;94887.09;6302133;22;20168;-73
2022/08/10 03:35:01;;;;;;;17.65;9.57;;;;;;;20.84;80.83;94884.97;6303096;22;20773;-73
2022/08/10 03:37:28;;;;;;;11.00;8.43;;;;;;;20.84;80.51;94890.25;6301781;22;20237;-73
2022/08/10 03:39:55;;;;;;;12.40;8.23;;;;;;;20.76;81.05;94885.56;6302549;22;20168;-73
2022/08/10 03:42:23;;;;;;;16.52;9.55;;;;;;;20.78;81.45;94892.16;6274495;22;20240;-73
2022/08/10 03:44:52;;;;;;;16.00;8.52;;;;;;;20.80;80.36;94886.59;6301358;22;20168;-73
2022/08/10 03:47:21;;;;;;;14.95;8.70;;;;;;;20.66;80.97;94893.56;6301325;22;20631;-73
2022/08/10 03:49:49;;;;;;;9.93;7.45;;;;;;;20.58;80.66;94896.78;6301807;22;20190;-74
2022/08/10 03:52:19;;;;;;;19.02;8.32;;;;;;;20.61;81.04;94901.50;6300918;22;20172;-73
2022/08/10 03:54:50;;;;;;;14.38;8.32;;;;;;;20.62;81.76;94903.09;6301309;22;20211;-74
2022/08/10 03:57:17;;;;;;;12.65;8.10;;;;;;;20.61;81.45;94901.50;6301590;22;20239;-74
2022/08/10 03:59:44;;;;;;;17.38;8.93;;;;;;;20.71;81.28;94906.75;6300824;22;20175;-75
2022/08/10 04:02:11;;;;;;;13.90;8.98;;;;;;;20.75;80.82;94902.50;6301373;22;20548;-75
2022/08/10 04:04:38;;;;;;;18.25;8.70;;;;;;;20.87;79.79;94902.91;6300311;22;20164;-74
2022/08/10 04:07:06;;;;;;;14.30;8.68;;;;;;;20.90;79.93;94902.38;6300792;22;20179;-74
2022/08/10 04:09:35;;;;;;;12.63;8.55;;;;;;;20.92;79.63;94905.53;6299808;22;20206;-73
2022/08/10 04:12:03;;;;;;;17.85;8.68;;;;;;;20.93;79.87;94905.25;6301570;22;20485;-74
2022/08/10 04:14:29;;;;;;;18.02;9.15;;;;;;;20.92;80.44;94916.13;6299322;22;20188;-74
2022/08/10 04:16:56;;;;;;;14.90;9.25;;;;;;;20.95;80.47;94912.91;6300980;22;20647;-73
2022/08/10 04:19:27;;;;;;;15.02;8.82;;;;;;;20.97;80.14;94917.91;6300588;22;20164;-74
2022/08/10 04:21:59;;;;;;;12.85;9.07;;;;;;;20.98;80.50;94911.59;6300844;22;20156;-74
2022/08/10 04:24:28;;;;;;;16.35;9.70;;;;;;;21.02;81.44;94916.03;6299961;22;20160;-72
2022/08/10 04:26:56;;;;;;;13.95;8.80;;;;;;;21.05;81.61;94918.13;6301034;22;20175;-74
2022/08/10 04:29:23;;;;;;;26.25;9.55;;;;;;;21.12;81.55;94916.00;6299395;22;20199;-74
2022/08/10 04:31:51;;;;;;;14.80;9.30;;;;;;;21.15;82.16;94917.28;6299411;22;20172;-78
2022/08/10 04:34:20;;;;;;;15.00;10.02;;;;;;;21.27;82.25;94915.06;6300269;22;20199;-73
2022/08/10 04:36:49;;;;;;;15.18;9.25;;;;;;;21.47;81.16;94910.38;6301266;22;20202;-75
2022/08/10 04:39:17;;;;;;;14.10;9.15;;;;;;;21.60;81.02;94916.88;6301061;22;20671;-73
2022/08/10 04:41:44;;;;;;;13.85;9.25;;;;;;;21.71;80.70;94914.91;6300902;22;20172;-73
2022/08/10 04:44:12;;;;;;;13.07;8.20;;;;;;;21.68;81.24;94918.91;6301111;22;20167;-73
2022/08/10 04:46:39;;;;;;;10.02;8.85;;;;;;;21.70;81.39;94916.00;6301403;22;20172;-73
2022/08/10 04:49:06;;;;;;;11.52;8.48;;;;;;;21.69;81.76;94917.84;6301289;22;20175;-74
2022/08/10 04:51:33;;;;;;;12.27;8.55;;;;;;;21.68;81.90;94913.59;6300884;22;20172;-73
2022/08/10 04:54:00;;;;;;;15.18;10.27;;;;;;;21.72;82.01;94927.06;6301328;22;20538;-73
2022/08/10 04:56:27;;;;;;;14.25;9.25;;;;;;;21.70;82.02;94913.34;6300805;22;20233;-73
2022/08/10 04:58:53;;;;;;;11.88;9.00;;;;;;;21.71;82.26;94914.91;6301993;22;20164;-73
2022/08/10 05:01:22;;;;;;;15.00;9.10;;;;;;;21.79;82.20;94916.94;6300422;22;20172;-73
2022/08/10 05:03:49;;;;;;;11.75;8.82;;;;;;;21.88;81.85;94923.22;6300819;22;20167;-73
2022/08/10 05:06:15;;;;;;;13.25;9.25;;;;;;;21.89;82.23;94920.31;6300917;22;20163;-73
2022/08/10 05:08:42;;;;;;;12.60;8.95;;;;;;;21.83;82.65;94920.59;6300693;22;20200;-73
2022/08/10 05:11:09;;;;;;;14.45;9.80;;;;;;;21.61;84.71;94925.59;6300910;22;20164;-73
2022/08/10 05:13:36;;;;;;;16.17;10.30;;;;;;;21.48;86.36;94909.31;6300660;22;20207;-73
2022/08/10 05:16:03;;;;;;;19.50;10.20;;;;;;;21.44;87.66;94918.09;6300653;22;20187;-73
2022/08/10 05:18:31;;;;;;;14.05;10.88;;;;;;;21.56;87.57;94913.19;6300522;22;20172;-73
2022/08/10 05:20:58;;;;;;;13.15;9.90;;;;;;;21.74;87.03;94922.28;6302031;22;20164;-73
2022/08/10 05:23:24;;;;;;;13.55;10.18;;;;;;;21.87;86.77;94926.91;6300007;22;20505;-76
2022/08/10 05:25:51;;;;;;;13.88;10.93;;;;;;;21.86;87.14;94917.38;6301402;22;20646;-77
2022/08/10 05:28:18;;;;;;;14.07;10.93;;;;;;;21.85;87.62;94929.03;6300525;22;20183;-73
2022/08/10 05:30:45;;;;;;;14.68;10.77;;;;;;;21.81;88.17;94918.25;6300165;22;20565;-74
2022/08/10 05:33:12;;;;;;;17.23;10.88;;;;;;;21.78;88.86;94916.16;6299922;22;20696;-72
2022/08/10 05:35:40;;;;;;;12.73;10.25;;;;;;;21.82;89.30;94916.38;6301252;22;20168;-82
2022/08/10 05:38:19;;;;;;;14.00;10.77;;;;;;;;;;6300508;22;20164;-73
2022/08/10 05:40:49;;;;;;;13.35;10.80;;;;;;;22.01;88.94;94912.75;6300361;22;20164;-73
2022/08/10 05:43:17;;;;;;;16.60;11.45;;;;;;;22.03;89.03;94920.41;6300704;22;20164;-73
2022/08/10 05:45:45;;;;;;;14.95;11.15;;;;;;;22.03;88.31;94921.19;6301911;22;20172;-74
2022/08/10 05:48:11;;;;;;;17.85;11.40;;;;;;;22.08;88.44;94925.63;6303031;22;20164;-73
2022/08/10 05:50:40;;;;;;;16.80;12.20;;;;;;;22.12;88.33;94920.56;6303116;22;20167;-73
2022/08/10 05:53:07;;;;;;;17.58;11.50;;;;;;;22.27;87.07;94917.75;6302888;22;20175;-74
2022/08/10 05:55:34;;;;;;;15.23;11.07;;;;;;;22.34;86.83;94923.47;6302543;22;20183;-73
2022/08/10 05:58:01;;;;;;;15.95;11.75;;;;;;;22.58;84.44;94919.69;6303068;22;20193;-73
2022/08/10 06:00:29;;;;;;;16.15;12.02;;;;;;;22.68;83.43;94923.31;6301641;22;20172;-73
2022/08/10 06:03:00;;;;;;;18.17;13.05;;;;;;;22.61;83.67;94916.47;6303423;22;20577;-74
2022/08/10 06:05:31;;;;;;;15.60;13.00;;;;;;;22.40;85.03;94923.13;6301623;22;20929;-73
2022/08/10 06:08:02;;;;;;;16.67;12.80;;;;;;;22.32;85.99;94922.97;6303508;22;20670;-73
2022/08/10 06:10:30;;;;;;;21.15;13.90;;;;;;;22.16;87.29;94926.88;6302992;22;20626;-73
2022/08/10 06:15:46;;;;;;;19.15;13.73;;;;;;;22.33;86.99;94924.56;6302488;22;20269;-72
2022/08/10 06:18:14;;;;;;;18.90;13.35;;;;;;;22.39;86.47;94931.38;6303585;22;20266;-79
2022/08/10 06:20:42;;;;;;;23.13;13.18;;;;;;;22.63;85.14;94916.97;6302846;22;20188;-74
2022/08/10 06:23:12;;;;;;;15.70;12.68;;;;;;;22.87;83.73;94924.88;6303048;22;20174;-75
2022/08/10 06:25:39;;;;;;;16.90;13.88;;;;;;;23.03;83.03;94914.84;6303120;22;20164;-74
2022/08/10 06:28:08;;;;;;;17.90;14.18;;;;;;;23.11;82.93;94922.16;6302850;22;20168;-73
2022/08/10 06:30:38;;;;;;;17.25;14.02;;;;;;;23.09;83.18;94919.75;6302163;22;20175;-74
2022/08/10 06:33:07;;;;;;;22.85;14.27;;;;;;;23.06;83.44;94933.59;6302155;22;20239;-75
2022/08/10 06:35:35;;;;;;;19.35;14.93;;;;;;;23.17;82.05;94935.00;6302648;22;20199;-79
2022/08/10 06:38:03;;;;;;;20.50;14.27;;;;;;;23.33;81.96;94940.09;6303360;22;20588;-77
2022/08/10 06:40:37;;;;;;;19.73;14.98;;;;;;;23.18;82.67;94938.47;6301962;22;20225;-78
2022/08/10 06:43:08;;;;;;;19.95;15.32;;;;;;;22.98;84.16;94931.59;6302909;22;20616;-78
2022/08/10 06:45:41;;;;;;;20.42;15.02;;;;;;;23.06;83.25;94930.16;6302501;22;20239;-79
2022/08/10 06:48:13;;;;;;;19.10;14.30;;;;;;;23.33;80.63;94929.47;6301900;22;20157;-79
2022/08/10 06:50:45;;;;;;;18.85;14.55;;;;;;;23.43;79.89;94930.13;6303205;22;20160;-78
2022/08/10 06:53:16;;;;;;;17.98;14.88;;;;;;;23.56;79.28;94929.38;6285692;22;20157;-78
2022/08/10 06:55:48;;;;;;;20.02;14.95;;;;;;;23.33;79.10;94924.16;6294919;22;20297;-78
2022/08/10 06:58:19;;;;;;;17.65;14.82;;;;;;;23.25;80.14;94924.84;6296735;22;20152;-79
2022/08/10 07:00:46;;;;;;;22.73;16.17;;;;;;;23.27;81.03;94927.97;6296490;22;20156;-79
2022/08/10 07:03:16;;;;;;;16.90;13.55;;;;;;;23.46;79.88;94926.88;6295910;22;20176;-80
2022/08/10 07:05:46;;;;;;;20.40;13.90;;;;;;;23.62;78.62;94925.56;6295485;22;20250;-80
2022/08/10 07:08:17;;;;;;;18.52;14.68;;;;;;;23.80;77.66;94931.88;6297549;22;20153;-80
2022/08/10 07:10:47;;;;;;;18.65;14.40;;;;;;;23.94;76.62;94930.00;6298264;22;20243;-80
2022/08/10 07:13:16;;;;;;;18.90;15.30;;;;;;;23.84;74.80;94924.13;6296669;22;20168;-80
2022/08/10 07:15:44;;;;;;;15.23;13.05;;;;;;;23.73;73.97;94928.81;6294440;22;20195;-75
2022/08/10 07:18:12;;;;;;;24.65;13.90;;;;;;;23.76;74.90;94919.47;6297754;22;20171;-74
2022/08/10 07:20:40;;;;;;;19.48;14.05;;;;;;;23.99;74.80;94921.16;6296867;22;20168;-74
2022/08/10 07:23:10;;;;;;;17.27;14.10;;;;;;;24.01;75.24;94919.00;6295771;22;20608;-74
2022/08/10 07:25:38;;;;;;;18.45;13.77;;;;;;;24.21;74.33;94922.06;6294450;22;20641;-75
2022/08/10 07:28:07;;;;;;;18.08;13.90;;;;;;;24.01;73.82;94922.41;6296435;22;20168;-73
2022/08/10 07:30:38;;;;;;;18.98;15.07;;;;;;;23.85;74.74;94925.66;6297347;22;20175;-73
2022/08/10 07:33:07;;;;;;;20.98;13.90;;;;;;;23.71;73.94;94921.16;6297206;22;20172;-73
2022/08/10 07:35:36;;;;;;;18.85;13.82;;;;;;;23.67;73.81;94919.34;6294098;22;20199;-72
2022/08/10 07:38:05;;;;;;;18.63;13.85;;;;;;;23.70;74.01;94916.91;6295474;22;20168;-73
2022/08/10 07:40:34;;;;;;;17.85;13.60;;;;;;;23.77;73.31;94910.41;6296287;22;20172;-72
2022/08/10 07:43:02;;;;;;;17.98;13.85;;;;;;;23.86;73.86;94911.31;6295958;22;20206;-72
2022/08/10 07:45:33;;;;;;;16.77;12.70;;;;;;;24.01;71.35;94913.69;6294815;22;20175;-72
2022/08/10 07:48:03;;;;;;;16.33;12.15;;;;;;;24.09;70.49;94918.31;6296044;22;20172;-72
2022/08/10 07:50:31;;;;;;;13.88;11.82;;;;;;;24.18;68.88;94921.88;6296053;22;20168;-71
2022/08/10 07:53:02;;;;;;;13.77;12.02;;;;;;;24.35;67.07;94921.28;6297627;22;20227;-70
2022/08/10 07:55:31;;;;;;;13.95;11.48;;;;;;;24.38;66.23;94915.38;6295346;22;20187;-73
2022/08/10 07:58:00;;;;;;;13.80;10.38;;;;;;;24.37;67.16;94906.59;6295397;22;20172;-71
2022/08/10 08:00:31;;;;;;;12.68;10.57;;;;;;;24.41;66.61;94912.13;6296040;22;20168;-70
2022/08/10 08:03:02;;;;;;;16.48;10.52;;;;;;;24.50;66.68;94911.09;6297716;22;20615;-81
2022/08/10 08:05:32;;;;;;;13.95;10.35;;;;;;;24.47;65.40;94894.97;6294844;22;20659;-74
2022/08/10 08:08:01;;;;;;;15.45;10.88;;;;;;;24.61;65.83;94907.16;6295821;22;20160;-74
2022/08/10 08:10:30;;;;;;;12.10;10.65;;;;;;;24.76;64.62;94903.38;6297080;22;20176;-74
2022/08/10 08:12:58;;;;;;;14.25;10.00;;;;;;;24.93;64.63;94902.75;6296108;22;20168;-74
2022/08/10 08:15:26;;;;;;;12.90;9.30;;;;;;;25.14;63.08;94906.47;6294358;22;20207;-74
2022/08/10 08:17:56;;;;;;;11.82;8.80;;;;;;;25.41;60.49;94911.69;6293986;22;20172;-74
2022/08/10 08:20:25;;;;;;;14.27;8.55;;;;;;;25.21;59.89;94891.69;6295632;22;20168;-75
2022/08/10 08:22:53;;;;;;;9.93;8.63;;;;;;;25.16;60.68;94893.69;6295919;22;20740;-74
2022/08/10 08:25:22;;;;;;;13.02;8.63;;;;;;;25.25;61.06;94902.50;6294537;22;20179;-74
2022/08/10 08:27:52;;;;;;;10.30;8.38;;;;;;;25.42;61.23;94910.59;6295738;22;20179;-74
2022/08/10 08:30:20;;;;;;;11.43;9.23;;;;;;;25.72;58.45;94903.72;6298173;22;20168;-75
2022/08/10 08:32:48;;;;;;;12.50;7.68;;;;;;;25.99;56.51;94898.22;6299606;22;20172;-73
2022/08/10 08:35:18;;;;;;;8.73;7.80;;;;;;;26.15;54.60;94899.38;6299769;22;20697;-74
2022/08/10 08:37:48;;;;;;;11.05;7.90;;;;;;;26.25;55.39;94891.09;6300440;22;20982;-74
2022/08/10 08:40:18;;;;;;;12.27;9.30;;;;;;;26.30;56.04;94892.81;6300243;22;20226;-74
2022/08/10 08:43:11;;;;;;;10.68;8.25;;;;;;;26.21;54.98;94889.34;6300148;22;20612;-74
2022/08/10 08:45:47;;;;;;;10.23;7.00;;;;;;;26.22;52.48;94886.38;6299747;22;20160;-75
2022/08/10 08:48:31;;;;;;;8.55;6.88;;;;;;;26.11;54.14;94892.28;6300769;22;20160;-73
2022/08/10 08:51:18;;;;;;;9.38;8.07;;;;;;;26.18;55.38;94877.44;6301085;22;20159;-73
2022/08/10 08:53:58;;;;;;;17.10;8.00;;;;;;;26.39;55.05;94883.75;6299826;22;20619;-74
2022/08/10 08:56:31;;;;;;;11.05;7.70;;;;;;;26.48;54.19;94883.78;6300206;22;20157;-74
2022/08/10 08:59:14;;;;;;;13.13;7.57;;;;;;;26.68;54.64;94893.84;6300322;22;20196;-74
2022/08/10 09:02:05;;;;;;;13.00;8.32;;;;;;;26.85;54.29;94887.75;6300072;22;20164;-73
2022/08/10 09:04:48;;;;;;;9.57;8.23;;;;;;;26.93;53.47;94890.41;6299773;22;20359;-74
2022/08/10 09:07:49;;;;;;;12.35;8.35;;;;;;;26.75;53.68;94883.50;6300249;22;20190;-74
2022/08/10 09:10:27;;;;;;;10.50;8.63;;;;;;;26.73;54.82;94879.53;6300051;22;20191;-74
2022/08/10 09:13:02;;;;;;;11.60;8.57;;;;;;;26.95;54.17;94884.78;6300043;22;20156;-74
2022/08/10 09:15:38;;;;;;;9.98;7.88;;;;;;;27.10;53.88;94883.50;6299512;22;20176;-73
2022/08/10 09:18:14;;;;;;;9.98;8.30;;;;;;;27.20;52.47;94873.28;6301481;22;20164;-74
2022/08/10 09:20:48;;;;;;;9.13;7.72;;;;;;;27.12;52.48;94865.28;6304303;22;20515;-75
2022/08/10 09:23:29;;;;;;;12.70;7.40;;;;;;;27.24;52.39;94860.88;6303263;22;20242;-74
2022/08/10 09:26:02;;;;;;;10.52;6.15;;;;;;;27.29;50.94;94882.06;6304044;22;20160;-73
2022/08/10 09:28:36;;;;;;;10.93;6.18;;;;;;;27.31;49.23;94871.03;6302892;22;20691;-74
2022/08/10 09:31:07;;;;;;;14.15;6.82;;;;;;;27.51;50.10;94873.06;6303934;22;20160;-75
2022/08/10 09:33:50;;;;;;;15.63;6.55;;;;;;;27.66;49.29;94866.44;6302445;22;20160;-74
2022/08/10 09:36:31;;;;;;;7.40;6.45;;;;;;;27.59;48.93;94858.91;6302990;22;20172;-75
2022/08/10 09:39:13;;;;;;;10.05;6.45;;;;;;;27.70;48.08;94859.34;6303559;22;20649;-74
2022/08/10 09:41:56;;;;;;;11.52;6.70;;;;;;;27.74;47.26;94863.72;6303983;22;20195;-74
2022/08/10 09:44:38;;;;;;;6.55;5.20;;;;;;;27.68;47.85;94873.00;6303208;22;20160;-76
2022/08/10 09:47:19;;;;;;;8.48;5.35;;;;;;;27.97;46.37;94865.03;6303836;22;20217;-75
2022/08/10 09:50:01;;;;;;;10.13;5.22;;;;;;;28.07;45.62;94858.59;6303494;22;20292;-75
2022/08/10 09:52:36;;;;;;;9.00;5.65;;;;;;;28.20;46.84;94868.25;6304025;22;20160;-75
2022/08/10 09:55:14;;;;;;;12.60;5.03;;;;;;;28.23;46.35;94862.25;6303712;22;20172;-75
2022/08/10 09:57:57;;;;;;;8.18;4.75;;;;;;;28.38;45.68;94852.88;6303508;22;20156;-75
2022/08/10 10:00:30;;;;;;;7.88;4.97;;;;;;;28.50;45.13;94861.00;6303516;22;20187;-75
2022/08/10 10:03:12;;;;;;;6.75;5.00;;;;;;;28.58;45.62;94850.22;6304330;22;20610;-74
2022/08/10 10:05:48;;;;;;;6.05;5.45;;;;;;;28.66;45.83;94854.75;6303928;22;20156;-74
2022/08/10 10:08:24;;;;;;;5.88;5.18;;;;;;;28.80;44.27;94857.19;6303009;22;20155;-74
2022/08/10 10:11:07;;;;;;;8.13;4.93;;;;;;;28.76;44.98;94858.94;6303502;22;20159;-74
2022/08/10 10:13:44;;;;;;;6.05;5.25;;;;;;;28.82;43.73;94852.28;6303230;22;20607;-73
2022/08/10 10:16:26;;;;;;;6.40;5.13;;;;;;;28.54;43.88;94841.28;6303347;22;20184;-73
2022/08/10 10:19:04;;;;;;;6.88;5.00;;;;;;;28.40;44.58;94853.38;6304266;22;20719;-74
2022/08/10 10:21:38;;;;;;;8.88;4.55;;;;;;;28.44;44.13;94852.38;6303020;22;20602;-74
2022/08/10 10:24:14;;;;;;;5.72;4.40;;;;;;;28.57;44.26;94847.88;6303405;22;20597;-74
2022/08/10 10:26:50;;;;;;;5.88;4.35;;;;;;;28.80;43.05;94848.38;6304315;22;20148;-74
2022/08/10 10:29:29;;;;;;;5.75;4.72;;;;;;;28.98;42.87;94841.72;6303555;22;20480;-74
2022/08/10 10:32:02;;;;;;;5.93;4.85;;;;;;;28.93;41.60;94833.91;6303385;22;20539;-75
2022/08/10 10:34:38;;;;;;;6.80;4.70;;;;;;;28.63;43.38;94844.69;6301893;22;20518;-74
2022/08/10 10:37:07;;;;;;;5.40;4.63;;;;;;;28.82;44.64;94843.47;6303248;22;20152;-75
2022/08/10 10:39:35;;;;;;;5.95;4.82;;;;;;;28.72;44.96;94833.94;6301826;22;20545;-74
2022/08/10 10:42:15;;;;;;;8.25;5.00;;;;;;;28.51;43.99;94827.78;6302145;22;20516;-76
2022/08/10 10:44:53;;;;;;;7.47;4.90;;;;;;;28.52;45.02;94832.78;6301419;22;20156;-75
2022/08/10 10:47:45;;;;;;;9.05;4.75;;;;;;;28.57;44.88;94840.63;6302149;22;20156;-75
2022/08/10 10:50:17;;;;;;;7.65;4.90;;;;;;;28.60;45.27;94826.59;6302593;22;20152;-74
2022/08/10 10:52:51;;;;;;;5.70;5.10;;;;;;;28.49;45.08;94829.97;6302378;22;20479;-74
2022/08/10 10:55:26;;;;;;;5.63;4.82;;;;;;;28.58;46.66;94830.72;6302859;22;20551;-75
2022/08/10 10:58:01;;;;;;;8.32;4.60;;;;;;;28.96;45.76;94827.91;6302349;22;20164;-75
2022/08/10 11:00:37;;;;;;;5.82;4.88;;;;;;;29.08;44.47;94828.72;6301804;22;20166;-74
2022/08/10 11:03:34;;;;;;;10.70;4.90;;;;;;;29.17;44.28;94831.31;6302923;22;20564;-75
2022/08/10 11:06:09;;;;;;;6.85;5.22;;;;;;;29.44;42.71;94828.06;6302360;22;20153;-75
2022/08/10 11:08:40;;;;;;;5.93;5.22;;;;;;;29.15;42.88;94836.22;6301781;22;20203;-74
2022/08/10 11:11:10;;;;;;;7.90;4.65;;;;;;;29.25;44.31;94827.81;6302845;22;20152;-74
2022/08/10 11:13:47;;;;;;;6.65;5.22;;;;;;;29.27;43.73;94826.34;6301444;22;20159;-75
2022/08/10 11:16:20;;;;;;;5.97;5.47;;;;;;;29.19;43.58;94826.41;6301686;22;20183;-74
2022/08/10 11:18:59;;;;;;;9.05;5.30;;;;;;;29.01;44.51;94828.47;6301799;22;20165;-74
2022/08/10 11:21:40;;;;;;;7.57;4.82;;;;;;;28.78;44.44;94829.16;6301814;22;20160;-75
2022/08/10 11:24:14;;;;;;;5.05;4.57;;;;;;;28.80;44.44;94833.09;6301797;22;20163;-75
2022/08/10 11:26:48;;;;;;;6.10;5.05;;;;;;;29.11;44.80;94830.75;6301614;22;20235;-75
2022/08/10 11:29:25;;;;;;;10.10;5.35;;;;;;;29.35;44.26;94829.28;6302335;22;20606;-75
2022/08/10 11:32:00;;;;;;;9.48;5.70;;;;;;;29.41;42.94;94814.56;6302446;22;20162;-74
2022/08/10 11:34:35;;;;;;;5.75;4.78;;;;;;;29.22;44.40;94817.72;6301216;22;20166;-75
2022/08/10 11:37:10;;;;;;;5.63;4.70;;;;;;;29.23;43.62;94825.47;6302674;22;20172;-75
2022/08/10 11:39:43;;;;;;;5.97;4.85;;;;;;;29.14;43.84;94818.59;6301406;22;20164;-75
2022/08/10 11:42:20;;;;;;;9.95;5.00;;;;;;;29.10;44.06;94815.78;6300877;22;20584;-75
2022/08/10 11:44:54;;;;;;;8.35;5.07;;;;;;;29.29;44.28;94815.31;6302065;22;20171;-75
2022/08/10 11:47:27;;;;;;;5.47;4.93;;;;;;;28.91;42.43;94798.66;6301583;22;20160;-73